Time;durP1;ratioP1;P1;durP2;ratioP2;P2;SDS_P1;SDS_P2;PMS_P1;PMS_P2;Temp;Humidity;BMP_temperature;BMP_pressure;BME280_temperature;BME280_humidity;BME280_pressure;Samples;Min_cycle;Max_cycle;Signal;HPM_P1;HPM_P2
2021/04/22 00:01:33;;;;;;;9.87;8.80;;;7.90;99.90;;;;;;5058916;28;20203;-75
2021/04/22 00:03:59;;;;;;;10.60;9.50;;;7.90;99.90;;;;;;5055139;28;20603;-75
2021/04/22 00:06:26;;;;;;;9.93;9.03;;;7.90;99.90;;;;;;5066651;28;20214;-74
2021/04/22 00:08:52;;;;;;;10.30;9.20;;;7.90;99.90;;;;;;5055580;28;20570;-75
2021/04/22 00:11:18;;;;;;;11.60;9.93;;;7.90;99.90;;;;;;5059289;28;20200;-75
2021/04/22 00:13:45;;;;;;;11.67;9.50;;;7.80;99.90;;;;;;5056522;28;20196;-75
2021/04/22 00:16:13;;;;;;;9.83;8.73;;;7.80;99.90;;;;;;5061155;28;20263;-74
2021/04/22 00:18:40;;;;;;;10.33;9.23;;;7.80;99.90;;;;;;5058926;28;20211;-75
2021/04/22 00:21:06;;;;;;;11.30;9.90;;;7.80;99.90;;;;;;5054771;28;20250;-75
2021/04/22 00:23:32;;;;;;;11.53;10.03;;;7.70;99.90;;;;;;5059510;28;20195;-75
2021/04/22 00:25:59;;;;;;;11.57;10.40;;;7.70;99.90;;;;;;5056931;28;20216;-74
2021/04/22 00:28:26;;;;;;;12.00;10.00;;;7.60;99.90;;;;;;5058982;28;20205;-75
2021/04/22 00:30:53;;;;;;;13.47;10.97;;;7.60;99.90;;;;;;5066491;28;20234;-75
2021/04/22 00:33:22;;;;;;;11.33;10.07;;;7.60;99.90;;;;;;5056729;28;20205;-75
2021/04/22 00:35:49;;;;;;;9.87;8.87;;;7.60;99.90;;;;;;5057733;28;20216;-74
2021/04/22 00:38:17;;;;;;;10.47;9.37;;;7.60;99.90;;;;;;5059416;28;20214;-75
2021/04/22 00:40:44;;;;;;;10.27;9.27;;;7.50;99.90;;;;;;5055014;28;20575;-75
2021/04/22 00:43:13;;;;;;;11.17;9.30;;;7.40;99.90;;;;;;5062132;28;20707;-75
2021/04/22 00:45:42;;;;;;;11.83;10.63;;;7.30;99.90;;;;;;5055169;28;20235;-75
2021/04/22 00:48:09;;;;;;;11.60;10.30;;;7.20;99.90;;;;;;5058955;28;20200;-75
2021/04/22 00:50:40;;;;;;;12.40;10.67;;;7.10;99.90;;;;;;5055827;28;20302;-75
2021/04/22 00:53:07;;;;;;;11.33;8.63;;;7.10;99.90;;;;;;5064109;28;20250;-75
2021/04/22 00:55:34;;;;;;;10.80;9.23;;;7.10;99.90;;;;;;5062610;28;20217;-75
2021/04/22 00:58:02;;;;;;;11.60;10.50;;;7.00;99.90;;;;;;5059008;28;20647;-75
2021/04/22 01:00:31;;;;;;;9.90;8.97;;;7.10;99.90;;;;;;5059203;28;20212;-75
2021/04/22 01:02:58;;;;;;;9.80;8.90;;;7.10;99.90;;;;;;5055104;28;20200;-75
2021/04/22 01:05:27;;;;;;;11.73;10.70;;;7.00;99.90;;;;;;5060027;28;20680;-75
2021/04/22 01:07:54;;;;;;;14.03;12.63;;;7.00;99.90;;;;;;5058751;28;20573;-75
2021/04/22 01:10:21;;;;;;;13.23;12.03;;;7.00;99.90;;;;;;5061856;28;20324;-75
2021/04/22 01:12:48;;;;;;;13.00;11.90;;;7.00;99.90;;;;;;5062427;28;20204;-74
2021/04/22 01:15:18;;;;;;;12.67;11.43;;;6.90;99.90;;;;;;5060057;28;20261;-75
2021/04/22 01:17:45;;;;;;;13.93;12.60;;;6.90;99.90;;;;;;5055920;28;20227;-75
2021/04/22 01:20:18;;;;;;;15.80;14.30;;;6.80;99.90;;;;;;5058589;28;20214;-75
2021/04/22 01:22:46;;;;;;;14.50;13.10;;;6.80;99.90;;;;;;5063050;28;20200;-74
2021/04/22 01:25:16;;;;;;;13.97;12.67;;;6.80;99.90;;;;;;5060883;28;20207;-75
2021/04/22 01:27:42;;;;;;;15.33;14.03;;;6.70;99.90;;;;;;5056801;28;20221;-75
2021/04/22 01:30:11;;;;;;;13.97;12.67;;;6.70;99.90;;;;;;5054358;28;20199;-75
2021/04/22 01:32:38;;;;;;;13.60;12.40;;;6.70;99.90;;;;;;5062817;28;20207;-75
2021/04/22 01:35:05;;;;;;;15.43;13.57;;;6.70;99.90;;;;;;5063603;28;20282;-75
2021/04/22 01:37:32;;;;;;;17.80;16.03;;;6.70;99.90;;;;;;5062075;28;20205;-75
2021/04/22 01:39:59;;;;;;;18.50;16.70;;;6.70;99.90;;;;;;5056477;28;20207;-74
2021/04/22 01:42:25;;;;;;;16.97;15.27;;;6.70;99.90;;;;;;5063221;28;20597;-75
2021/04/22 01:44:52;;;;;;;17.63;15.20;;;6.80;99.90;;;;;;5062682;28;20199;-74
2021/04/22 01:47:18;;;;;;;17.63;15.87;;;6.90;99.90;;;;;;5059556;28;20241;-75
2021/04/22 01:49:44;;;;;;;17.37;15.57;;;6.90;99.90;;;;;;5061749;28;20194;-75
2021/04/22 01:52:11;;;;;;;16.47;14.83;;;7.00;99.90;;;;;;5062674;28;20187;-75
2021/04/22 01:54:37;;;;;;;15.53;14.03;;;7.10;99.90;;;;;;5057849;28;20206;-75
2021/04/22 01:57:05;;;;;;;16.07;14.47;;;7.20;99.90;;;;;;5062380;28;20249;-75
2021/04/22 01:59:32;;;;;;;16.03;14.53;;;7.20;99.90;;;;;;5062199;28;20216;-75
2021/04/22 02:01:58;;;;;;;14.23;12.97;;;7.10;99.90;;;;;;5060923;28;20257;-75
2021/04/22 02:04:24;;;;;;;14.00;12.70;;;7.00;99.90;;;;;;5060587;28;20206;-75
2021/04/22 02:06:51;;;;;;;12.70;11.50;;;7.00;99.90;;;;;;5056900;28;20216;-75
2021/04/22 02:09:17;;;;;;;13.87;12.63;;;7.00;99.90;;;;;;5058338;28;20192;-75
2021/04/22 02:11:44;;;;;;;14.00;12.73;;;7.00;99.90;;;;;;5059507;28;20243;-75
2021/04/22 02:14:11;;;;;;;14.33;12.93;;;7.00;99.90;;;;;;5058785;28;20205;-75
2021/04/22 02:16:38;;;;;;;14.20;12.90;;;7.00;99.90;;;;;;5060420;28;20269;-75
2021/04/22 02:19:05;;;;;;;13.77;12.47;;;6.90;99.90;;;;;;5054682;28;20573;-75
2021/04/22 02:21:32;;;;;;;13.50;12.30;;;6.90;99.90;;;;;;5062007;28;20679;-75
2021/04/22 02:23:58;;;;;;;13.80;12.53;;;6.90;99.90;;;;;;5056476;28;20190;-75
2021/04/22 02:26:25;;;;;;;14.83;13.33;;;6.90;99.90;;;;;;5058625;28;20223;-74
2021/04/22 02:28:51;;;;;;;23.10;19.80;;;6.90;99.90;;;;;;5059983;28;20200;-75
2021/04/22 02:31:18;;;;;;;26.60;20.63;;;6.90;99.90;;;;;;5058499;28;20203;-75
2021/04/22 02:33:46;;;;;;;42.13;26.80;;;6.90;99.90;;;;;;5060579;28;20199;-75
2021/04/22 02:36:13;;;;;;;40.10;27.70;;;6.90;99.90;;;;;;5059782;28;20219;-74
2021/04/22 02:38:39;;;;;;;42.93;29.03;;;6.90;99.90;;;;;;5059742;28;20199;-75
2021/04/22 02:41:05;;;;;;;56.83;35.40;;;6.90;99.90;;;;;;5062944;28;20196;-75
2021/04/22 02:43:32;;;;;;;64.60;38.93;;;6.80;99.90;;;;;;5055443;28;20211;-77
2021/04/22 02:45:58;;;;;;;53.70;33.90;;;6.80;99.90;;;;;;5071407;22;20229;-80
2021/04/22 02:48:25;;;;;;;45.53;30.10;;;6.80;99.90;;;;;;5053608;28;20212;-81
2021/04/22 02:50:54;;;;;;;38.57;27.00;;;6.80;99.90;;;;;;5028368;28;20193;-82
2021/04/22 02:53:21;;;;;;;34.00;25.33;;;6.80;99.90;;;;;;5037808;28;20630;-80
2021/04/22 02:55:48;;;;;;;31.77;24.23;;;6.90;99.90;;;;;;5029055;28;20246;-82
2021/04/22 02:58:16;;;;;;;32.30;23.60;;;6.90;99.90;;;;;;5024977;28;20629;-81
2021/04/22 03:00:44;;;;;;;31.47;22.43;;;7.00;99.90;;;;;;5029438;28;20238;-81
2021/04/22 03:03:11;;;;;;;26.77;21.80;;;7.00;99.90;;;;;;5031426;28;20200;-81
2021/04/22 03:05:39;;;;;;;28.33;21.40;;;7.00;99.90;;;;;;5029067;28;20234;-78
2021/04/22 03:08:06;;;;;;;24.87;19.40;;;7.00;99.90;;;;;;5024287;28;20227;-77
2021/04/22 03:10:33;;;;;;;25.13;20.37;;;7.00;99.90;;;;;;5025057;28;20239;-77
2021/04/22 03:13:00;;;;;;;27.90;20.47;;;7.00;99.90;;;;;;5028359;28;20600;-77
2021/04/22 03:15:27;;;;;;;24.33;20.80;;;7.10;99.90;;;;;;5035471;28;20691;-77
2021/04/22 03:17:53;;;;;;;33.07;24.23;;;7.10;99.90;;;;;;5035809;28;20223;-76
2021/04/22 03:20:21;;;;;;;31.07;24.00;;;7.00;99.90;;;;;;5030827;28;20219;-75
2021/04/22 03:22:48;;;;;;;26.60;22.53;;;7.00;99.90;;;;;;5026811;28;20200;-79
2021/04/22 03:25:17;;;;;;;24.03;20.00;;;7.00;99.90;;;;;;5040305;28;20210;-78
2021/04/22 03:27:43;;;;;;;23.77;20.20;;;7.00;99.90;;;;;;5055563;28;20253;-78
2021/04/22 03:30:13;;;;;;;26.67;19.73;;;7.10;99.90;;;;;;5035548;28;20205;-79
2021/04/22 03:32:40;;;;;;;23.47;19.73;;;7.10;99.90;;;;;;5027526;28;20196;-79
2021/04/22 03:35:08;;;;;;;21.50;18.13;;;7.10;99.90;;;;;;5036145;28;20279;-78
2021/04/22 03:37:35;;;;;;;22.37;18.03;;;7.10;99.90;;;;;;5037941;28;20220;-79
2021/04/22 03:40:03;;;;;;;23.03;18.60;;;7.10;99.90;;;;;;5039783;28;20229;-79
2021/04/22 03:42:29;;;;;;;20.63;17.07;;;7.10;99.90;;;;;;5039756;28;20353;-79
2021/04/22 03:44:56;;;;;;;20.37;17.00;;;7.10;99.90;;;;;;5040926;28;20196;-79
2021/04/22 03:47:22;;;;;;;19.67;17.57;;;7.10;99.90;;;;;;5039550;28;20237;-79
2021/04/22 03:49:48;;;;;;;20.77;18.13;;;7.20;99.90;;;;;;5035341;28;20202;-79
2021/04/22 03:52:15;;;;;;;21.97;17.80;;;7.10;99.90;;;;;;5037177;28;20592;-79
2021/04/22 03:54:41;;;;;;;20.27;17.37;;;7.20;99.90;;;;;;5032458;28;20205;-79
2021/04/22 03:57:09;;;;;;;19.00;16.70;;;7.10;99.90;;;;;;5041154;28;20223;-79
2021/04/22 03:59:35;;;;;;;18.37;16.13;;;7.20;99.90;;;;;;5038376;28;20208;-80
2021/04/22 04:02:01;;;;;;;18.77;16.93;;;7.20;99.90;;;;;;5040660;28;20203;-79
2021/04/22 04:04:28;;;;;;;16.60;14.77;;;7.20;99.90;;;;;;5031554;28;20208;-79
2021/04/22 04:06:54;;;;;;;18.33;15.13;;;7.20;99.90;;;;;;5031680;28;20248;-79
2021/04/22 04:09:20;;;;;;;15.60;13.83;;;7.20;99.90;;;;;;5033395;28;20208;-78
2021/04/22 04:11:47;;;;;;;16.80;15.00;;;7.20;99.90;;;;;;5039832;28;20583;-79
2021/04/22 04:14:14;;;;;;;16.10;14.50;;;7.20;99.90;;;;;;5041135;28;20204;-78
2021/04/22 04:16:40;;;;;;;15.47;13.97;;;7.20;99.90;;;;;;5033984;28;20282;-79
2021/04/22 04:19:08;;;;;;;16.20;14.60;;;7.20;99.90;;;;;;5035321;28;20212;-79
2021/04/22 04:21:34;;;;;;;13.87;12.57;;;7.20;99.90;;;;;;5036939;28;20274;-80
2021/04/22 04:24:00;;;;;;;13.83;12.63;;;7.20;99.90;;;;;;5046418;28;20197;-80
2021/04/22 04:26:26;;;;;;;15.30;14.00;;;7.20;99.90;;;;;;5031457;28;20252;-79
2021/04/22 04:28:53;;;;;;;15.23;13.73;;;7.20;99.90;;;;;;5038369;28;20192;-78
2021/04/22 04:31:20;;;;;;;13.70;12.43;;;7.20;99.90;;;;;;5038009;28;20318;-79
2021/04/22 04:33:47;;;;;;;14.57;13.20;;;7.20;99.90;;;;;;5037315;28;20210;-79
2021/04/22 04:36:13;;;;;;;14.93;13.50;;;7.20;99.90;;;;;;5034029;28;20259;-79
2021/04/22 04:38:39;;;;;;;14.90;13.50;;;7.20;99.90;;;;;;5036135;28;20219;-78
2021/04/22 04:41:06;;;;;;;16.30;14.90;;;7.20;99.90;;;;;;5034866;28;20197;-79
2021/04/22 04:43:32;;;;;;;14.47;13.20;;;7.30;99.90;;;;;;5031677;28;20185;-80
2021/04/22 04:45:58;;;;;;;13.80;12.60;;;7.30;99.90;;;;;;5036561;28;20234;-79
2021/04/22 04:48:25;;;;;;;14.17;12.97;;;7.30;99.90;;;;;;5036999;28;20208;-80
2021/04/22 04:50:52;;;;;;;14.17;12.97;;;7.40;99.90;;;;;;5034721;28;20208;-80
2021/04/22 04:53:19;;;;;;;14.97;13.67;;;7.40;99.90;;;;;;5031944;28;20207;-78
2021/04/22 04:55:45;;;;;;;14.10;12.70;;;7.50;99.90;;;;;;5038655;28;20221;-79
2021/04/22 04:58:12;;;;;;;14.27;12.87;;;7.60;99.90;;;;;;5035463;28;20197;-78
2021/04/22 05:00:38;;;;;;;14.63;13.33;;;7.70;99.90;;;;;;5034995;28;20283;-79
2021/04/22 05:03:05;;;;;;;14.50;13.20;;;7.80;99.90;;;;;;5036300;28;20199;-79
2021/04/22 05:05:32;;;;;;;13.73;12.53;;;7.80;99.90;;;;;;5038317;28;20218;-79
2021/04/22 05:07:58;;;;;;;14.07;12.83;;;7.90;99.90;;;;;;5037597;28;20576;-79
2021/04/22 05:10:25;;;;;;;15.20;13.60;;;7.90;99.90;;;;;;5037452;28;20197;-80
2021/04/22 05:12:52;;;;;;;14.90;13.53;;;7.90;99.90;;;;;;5043254;28;20470;-79
2021/04/22 05:15:19;;;;;;;15.87;14.03;;;7.90;99.90;;;;;;5037993;28;20205;-78
2021/04/22 05:17:45;;;;;;;15.20;13.43;;;8.00;99.90;;;;;;5036134;28;20206;-78
2021/04/22 05:20:13;;;;;;;14.37;13.07;;;8.10;99.90;;;;;;5037363;28;20217;-79
2021/04/22 05:22:40;;;;;;;13.30;11.90;;;8.20;99.90;;;;;;5035257;28;20271;-79
2021/04/22 05:25:07;;;;;;;14.97;12.43;;;8.40;99.90;;;;;;5028047;28;20196;-80
2021/04/22 05:27:34;;;;;;;14.10;12.57;;;8.40;99.90;;;;;;5037166;28;20213;-78
2021/04/22 05:30:00;;;;;;;14.27;12.87;;;8.50;99.90;;;;;;5030419;28;20194;-80
2021/04/22 05:32:26;;;;;;;12.77;11.50;;;8.70;99.90;;;;;;5033242;28;20203;-79
2021/04/22 05:34:53;;;;;;;11.07;10.07;;;9.00;99.90;;;;;;5034455;28;20883;-80
2021/04/22 05:37:19;;;;;;;13.00;11.37;;;9.30;99.90;;;;;;5036202;28;20214;-79
2021/04/22 05:39:47;;;;;;;15.37;12.70;;;9.50;99.90;;;;;;5036371;28;20211;-78
2021/04/22 05:42:13;;;;;;;13.03;11.63;;;9.80;99.90;;;;;;5036922;28;20196;-79
2021/04/22 05:44:41;;;;;;;12.87;11.33;;;10.00;99.90;;;;;;5035833;28;20258;-78
2021/04/22 05:47:08;;;;;;;13.03;10.10;;;10.00;99.90;;;;;;5036770;28;20227;-78
2021/04/22 05:49:34;;;;;;;13.03;11.17;;;10.10;99.90;;;;;;5031950;28;20699;-79
2021/04/22 05:52:00;;;;;;;12.13;10.30;;;10.10;99.90;;;;;;5027302;28;20196;-79
2021/04/22 05:54:26;;;;;;;11.03;9.40;;;10.20;99.90;;;;;;5035016;28;20547;-78
2021/04/22 05:56:53;;;;;;;11.07;9.27;;;10.20;99.90;;;;;;5026382;28;20224;-79
2021/04/22 05:59:20;;;;;;;12.93;10.07;;;10.20;99.90;;;;;;5028183;28;20601;-79
2021/04/22 06:01:46;;;;;;;11.90;10.23;;;10.20;99.90;;;;;;5034326;28;20196;-80
2021/04/22 06:04:12;;;;;;;11.83;10.63;;;10.10;99.90;;;;;;5034655;28;20196;-78
2021/04/22 06:06:39;;;;;;;12.57;10.57;;;10.00;99.90;;;;;;5025804;28;20219;-80
2021/04/22 06:09:06;;;;;;;10.70;9.53;;;10.10;99.90;;;;;;5034819;28;20230;-78
2021/04/22 06:11:32;;;;;;;12.53;11.10;;;10.10;99.90;;;;;;5032005;28;20211;-78
2021/04/22 06:13:59;;;;;;;12.97;11.60;;;10.20;99.90;;;;;;5032440;28;20230;-79
2021/04/22 06:16:26;;;;;;;12.80;11.37;;;10.30;99.90;;;;;;5035899;28;20215;-78
2021/04/22 06:18:53;;;;;;;12.93;10.13;;;10.40;99.90;;;;;;5025941;28;20193;-79
2021/04/22 06:21:19;;;;;;;11.97;10.47;;;10.50;99.90;;;;;;5034234;28;20204;-78
2021/04/22 06:23:46;;;;;;;11.60;10.30;;;10.50;99.90;;;;;;5030896;28;20203;-79
2021/04/22 06:26:12;;;;;;;12.80;10.83;;;10.60;99.90;;;;;;5026956;28;20243;-80
2021/04/22 06:28:38;;;;;;;11.23;9.97;;;10.60;99.90;;;;;;5034860;28;20278;-78
2021/04/22 06:31:06;;;;;;;12.30;10.20;;;10.70;99.90;;;;;;5029598;28;20200;-78
2021/04/22 06:33:32;;;;;;;12.43;9.83;;;10.70;99.90;;;;;;5031893;28;20211;-78
2021/04/22 06:35:58;;;;;;;14.03;10.97;;;10.80;99.90;;;;;;5021481;28;20624;-78
2021/04/22 06:38:25;;;;;;;14.47;11.03;;;11.00;99.90;;;;;;5033398;28;20207;-78
2021/04/22 06:40:51;;;;;;;12.63;10.53;;;11.10;99.90;;;;;;5025902;28;20212;-78
2021/04/22 06:43:18;;;;;;;13.60;11.60;;;11.20;99.90;;;;;;5030210;28;20576;-79
2021/04/22 06:45:46;;;;;;;12.90;10.87;;;11.40;99.90;;;;;;5025715;28;20307;-78
2021/04/22 06:48:15;;;;;;;12.80;10.70;;;11.60;99.90;;;;;;5028754;28;20201;-80
2021/04/22 06:50:41;;;;;;;16.63;11.57;;;11.70;99.90;;;;;;5031016;28;20215;-79
2021/04/22 06:53:08;;;;;;;13.27;10.50;;;11.70;99.90;;;;;;5032068;28;20227;-79
2021/04/22 06:55:34;;;;;;;13.43;11.43;;;11.40;99.90;;;;;;5024854;28;20271;-78
2021/04/22 06:58:03;;;;;;;12.03;10.33;;;11.40;99.90;;;;;;5025294;28;20644;-78
2021/04/22 07:00:32;;;;;;;11.83;10.63;;;11.30;99.90;;;;;;5027413;28;20219;-79
2021/04/22 07:02:58;;;;;;;19.40;14.27;;;11.30;99.90;;;;;;5031940;28;20204;-78
2021/04/22 07:05:25;;;;;;;17.00;14.50;;;11.30;99.90;;;;;;5023526;28;20199;-78
2021/04/22 07:07:52;;;;;;;14.60;13.03;;;11.20;99.90;;;;;;5029809;28;20200;-78
2021/04/22 07:10:19;;;;;;;14.83;12.87;;;11.30;99.90;;;;;;5029465;28;20200;-78
2021/04/22 07:12:45;;;;;;;15.00;12.97;;;11.30;99.90;;;;;;5031652;28;20208;-79
2021/04/22 07:15:13;;;;;;;15.10;13.00;;;11.30;99.90;;;;;;5033959;28;20199;-78
2021/04/22 07:17:39;;;;;;;18.70;16.33;;;11.40;99.90;;;;;;5032586;28;20614;-78
2021/04/22 07:20:07;;;;;;;22.57;15.83;;;11.30;99.90;;;;;;5029239;28;20206;-78
2021/04/22 07:22:34;;;;;;;18.80;15.03;;;11.20;99.90;;;;;;5032921;28;20205;-79
2021/04/22 07:25:02;;;;;;;20.33;14.00;;;11.30;99.90;;;;;;5025566;28;20197;-79
2021/04/22 07:27:28;;;;;;;13.80;12.37;;;11.40;99.90;;;;;;5028317;28;20247;-79
2021/04/22 07:29:54;;;;;;;13.90;11.73;;;11.60;99.90;;;;;;5030826;28;20188;-79
2021/04/22 07:32:21;;;;;;;19.47;14.40;;;11.80;99.90;;;;;;5029436;28;20200;-78
2021/04/22 07:34:48;;;;;;;18.97;14.50;;;11.90;99.90;;;;;;5032269;28;20200;-78
2021/04/22 07:37:14;;;;;;;17.13;14.30;;;11.80;99.90;;;;;;5027750;28;20247;-80
2021/04/22 07:39:42;;;;;;;21.17;17.67;;;11.90;99.90;;;;;;5031956;28;20470;-78
2021/04/22 07:42:08;;;;;;;17.93;14.90;;;12.00;99.90;;;;;;5026530;28;20202;-80
2021/04/22 07:44:35;;;;;;;19.03;16.20;;;12.00;99.90;;;;;;5035582;28;20198;-79
2021/04/22 07:47:02;;;;;;;18.53;14.63;;;11.90;99.90;;;;;;5034202;28;20288;-79
2021/04/22 07:49:28;;;;;;;21.97;18.13;;;12.00;99.90;;;;;;5032910;28;20201;-79
2021/04/22 07:51:55;;;;;;;19.17;16.87;;;11.80;99.90;;;;;;5037389;28;20194;-79
2021/04/22 07:54:21;;;;;;;19.60;16.37;;;11.80;99.90;;;;;;5031468;28;20572;-79
2021/04/22 07:56:48;;;;;;;22.57;18.93;;;12.00;99.90;;;;;;5038384;28;20215;-79
2021/04/22 07:59:15;;;;;;;18.80;15.73;;;11.90;99.90;;;;;;5036698;28;20235;-80
2021/04/22 08:01:41;;;;;;;22.47;16.73;;;12.00;99.90;;;;;;5035986;28;20695;-78
2021/04/22 08:04:07;;;;;;;19.97;16.17;;;12.00;99.90;;;;;;5037335;28;20256;-78
2021/04/22 08:06:34;;;;;;;18.47;15.10;;;12.00;99.90;;;;;;5029960;28;20226;-78
2021/04/22 08:09:01;;;;;;;22.33;18.07;;;12.20;99.90;;;;;;5031543;28;20582;-80
2021/04/22 08:11:28;;;;;;;24.60;16.87;;;12.40;99.90;;;;;;5037109;28;20209;-78
2021/04/22 08:13:55;;;;;;;19.70;16.80;;;12.50;99.90;;;;;;5033947;28;20198;-78
2021/04/22 08:16:22;;;;;;;19.47;16.70;;;12.40;99.90;;;;;;5032114;28;20212;-79
2021/04/22 08:18:48;;;;;;;20.50;17.60;;;12.30;99.90;;;;;;5027030;28;20196;-78
2021/04/22 08:21:15;;;;;;;20.63;18.43;;;12.30;99.90;;;;;;5036395;28;20223;-78
2021/04/22 08:23:41;;;;;;;20.73;17.87;;;12.30;99.90;;;;;;5033292;28;20217;-78
2021/04/22 08:26:10;;;;;;;21.07;17.53;;;12.40;99.90;;;;;;5036091;28;20212;-80
2021/04/22 08:28:37;;;;;;;20.27;17.47;;;12.60;99.90;;;;;;5027195;28;20256;-78
2021/04/22 08:31:07;;;;;;;22.10;18.07;;;12.90;99.90;;;;;;5036537;28;20593;-78
2021/04/22 08:33:37;;;;;;;25.73;21.57;;;13.30;99.90;;;;;;5030508;28;20195;-79
2021/04/22 08:36:04;;;;;;;22.60;19.23;;;13.40;99.90;;;;;;5024943;28;20208;-78
2021/04/22 08:38:30;;;;;;;20.73;17.20;;;13.50;99.90;;;;;;5034735;28;20231;-79
2021/04/22 08:40:58;;;;;;;19.50;15.83;;;13.60;99.90;;;;;;5032143;28;20230;-79
2021/04/22 08:43:25;;;;;;;21.00;18.90;;;13.50;99.90;;;;;;5033370;28;20199;-78
2021/04/22 08:45:53;;;;;;;20.73;18.53;;;13.40;99.90;;;;;;5050881;22;20223;-75
2021/04/22 08:48:21;;;;;;;21.83;19.60;;;13.40;99.90;;;;;;5032575;28;20199;-76
2021/04/22 08:50:49;;;;;;;20.90;18.73;;;13.20;99.90;;;;;;5024390;28;20196;-75
2021/04/22 08:53:17;;;;;;;19.43;17.53;;;13.10;99.90;;;;;;5028084;28;20230;-75
2021/04/22 08:55:44;;;;;;;19.03;17.23;;;13.20;99.90;;;;;;5024221;28;20197;-75
2021/04/22 08:58:11;;;;;;;19.90;18.00;;;13.20;99.90;;;;;;5023874;28;20193;-76
2021/04/22 09:00:40;;;;;;;23.10;20.60;;;13.00;99.90;;;;;;5023322;28;20219;-75
2021/04/22 09:03:07;;;;;;;20.13;18.13;;;12.80;99.90;;;;;;5020132;28;20192;-76
2021/04/22 09:05:34;;;;;;;21.97;19.67;;;12.90;99.90;;;;;;5018155;28;20211;-76
2021/04/22 09:08:00;;;;;;;24.40;20.13;;;12.70;99.90;;;;;;5013588;28;20219;-75
2021/04/22 09:10:28;;;;;;;20.93;18.73;;;12.50;99.90;;;;;;5021786;28;20196;-79
2021/04/22 09:12:56;;;;;;;18.00;16.20;;;12.70;99.90;;;;;;5020507;28;20291;-76
2021/04/22 09:15:23;;;;;;;20.43;18.23;;;12.90;99.90;;;;;;5024721;28;20667;-76
2021/04/22 09:17:57;;;;;;;21.80;19.33;;;12.80;99.90;;;;;;5021905;28;20231;-76
2021/04/22 09:20:29;;;;;;;22.03;18.50;;;12.90;99.90;;;;;;5024433;28;20218;-76
2021/04/22 09:22:57;;;;;;;23.23;20.33;;;12.90;99.90;;;;;;5024288;28;20615;-76
2021/04/22 09:25:26;;;;;;;21.17;18.43;;;12.80;99.90;;;;;;5020283;28;20199;-76
2021/04/22 09:28:03;;;;;;;19.13;17.17;;;13.00;99.90;;;;;;5022454;28;20720;-76
2021/04/22 09:30:33;;;;;;;22.63;20.27;;;13.10;99.90;;;;;;5017511;28;20274;-76
2021/04/22 09:33:00;;;;;;;21.97;19.67;;;13.00;99.90;;;;;;5022444;28;20201;-76
2021/04/22 09:35:27;;;;;;;22.60;18.80;;;13.00;99.90;;;;;;5022506;28;20206;-77
2021/04/22 09:37:55;;;;;;;19.30;16.93;;;12.80;99.90;;;;;;5016074;28;20242;-76
2021/04/22 09:40:27;;;;;;;22.10;19.47;;;13.00;99.90;;;;;;5017403;28;20223;-76
2021/04/22 09:42:54;;;;;;;20.13;17.43;;;12.90;99.90;;;;;;5022420;28;20203;-76
2021/04/22 09:45:26;;;;;;;18.83;17.13;;;13.10;99.90;;;;;;5022031;28;20196;-76
2021/04/22 09:47:53;;;;;;;18.40;16.50;;;13.30;99.90;;;;;;5022061;28;20238;-76
2021/04/22 09:50:22;;;;;;;21.23;19.03;;;13.50;99.90;;;;;;5021491;28;20572;-76
2021/04/22 09:52:51;;;;;;;21.50;19.10;;;13.40;99.90;;;;;;5022371;28;20288;-76
2021/04/22 09:55:22;;;;;;;18.13;16.33;;;13.40;99.90;;;;;;5020917;28;20669;-75
2021/04/22 09:57:50;;;;;;;20.43;18.27;;;13.60;99.90;;;;;;5017987;28;20208;-76
2021/04/22 10:00:22;;;;;;;23.50;19.23;;;13.50;99.90;;;;;;5020047;28;20210;-76
2021/04/22 10:02:55;;;;;;;19.40;17.40;;;13.50;99.90;;;;;;5020240;28;20200;-76
2021/04/22 10:05:23;;;;;;;17.97;16.17;;;13.50;99.90;;;;;;5019820;28;20207;-76
2021/04/22 10:07:50;;;;;;;17.30;15.50;;;13.50;99.90;;;;;;5021338;28;20224;-76
2021/04/22 10:10:20;;;;;;;19.30;17.37;;;13.80;99.90;;;;;;5022885;28;20196;-76
2021/04/22 10:12:48;;;;;;;16.10;14.40;;;13.80;99.90;;;;;;5024167;28;20215;-76
2021/04/22 10:15:18;;;;;;;16.40;14.83;;;13.90;99.90;;;;;;5021657;28;20200;-76
2021/04/22 10:17:52;;;;;;;19.97;15.80;;;14.00;99.90;;;;;;5017989;28;20221;-76
2021/04/22 10:20:19;;;;;;;17.53;15.63;;;14.00;99.90;;;;;;5020109;28;20314;-77
2021/04/22 10:22:47;;;;;;;24.57;17.63;;;14.20;99.90;;;;;;5022100;28;20223;-76
2021/04/22 10:25:16;;;;;;;18.43;16.53;;;13.90;99.90;;;;;;5014822;28;20203;-76
2021/04/22 10:27:43;;;;;;;20.20;18.20;;;14.10;99.90;;;;;;5020216;28;20274;-75
2021/04/22 10:30:12;;;;;;;19.50;16.87;;;14.10;99.90;;;;;;5017368;28;20196;-76
2021/04/22 10:32:42;;;;;;;17.87;16.07;;;14.20;99.90;;;;;;5023455;28;20668;-75
2021/04/22 10:35:11;;;;;;;17.07;15.33;;;14.10;99.90;;;;;;5021009;28;20204;-76
2021/04/22 10:37:40;;;;;;;17.90;16.10;;;14.10;99.90;;;;;;5017913;28;20320;-76
2021/04/22 10:40:09;;;;;;;16.43;14.73;;;14.20;99.90;;;;;;5021079;28;20212;-76
2021/04/22 10:42:37;;;;;;;18.97;15.17;;;14.20;99.90;;;;;;5020198;28;20195;-76
2021/04/22 10:45:07;;;;;;;17.77;15.83;;;14.30;99.90;;;;;;5020453;28;20658;-76
2021/04/22 10:47:34;;;;;;;24.13;18.67;;;14.30;99.90;;;;;;5021696;28;20734;-77
2021/04/22 10:50:01;;;;;;;17.50;15.73;;;14.00;99.90;;;;;;5007005;28;20199;-75
2021/04/22 10:52:28;;;;;;;19.90;17.90;;;14.20;99.90;;;;;;5016775;28;20203;-76
2021/04/22 10:54:54;;;;;;;18.53;16.20;;;14.30;99.90;;;;;;5022686;28;20574;-75
2021/04/22 10:57:23;;;;;;;17.57;15.77;;;14.40;99.90;;;;;;5020306;28;20228;-76
2021/04/22 11:00:04;;;;;;;18.83;14.93;;;14.40;99.90;;;;;;5022031;28;20211;-76
2021/04/22 11:02:41;;;;;;;15.13;13.63;;;14.40;99.90;;;;;;5015029;28;20327;-76
2021/04/22 11:05:25;;;;;;;16.67;14.97;;;14.60;99.90;;;;;;5018521;28;20189;-76
2021/04/22 11:08:00;;;;;;;14.00;12.67;;;14.80;99.90;;;;;;5021810;28;20311;-76
2021/04/22 11:10:35;;;;;;;16.60;13.33;;;15.50;99.90;;;;;;5019463;28;20195;-76
2021/04/22 11:13:10;;;;;;;15.30;13.77;;;15.90;99.90;;;;;;5008563;28;20198;-76
2021/04/22 11:15:36;;;;;;;15.23;13.70;;;16.10;99.90;;;;;;5014586;28;20204;-76
2021/04/22 11:18:09;;;;;;;14.60;13.13;;;16.20;99.90;;;;;;5021838;28;20591;-76
2021/04/22 11:20:40;;;;;;;13.00;11.63;;;16.40;99.90;;;;;;5017568;28;20693;-76
2021/04/22 11:23:14;;;;;;;14.47;13.17;;;16.30;99.90;;;;;;5020502;28;20197;-76
2021/04/22 11:25:47;;;;;;;15.67;14.17;;;16.50;99.90;;;;;;5024761;28;20245;-76
2021/04/22 11:28:16;;;;;;;15.10;13.70;;;16.60;99.90;;;;;;5023077;28;20238;-76
2021/04/22 11:30:42;;;;;;;14.50;12.57;;;16.90;99.90;;;;;;5020812;28;20672;-76
2021/04/22 11:33:09;;;;;;;16.63;15.03;;;16.90;99.90;;;;;;5023605;28;20192;-77
2021/04/22 11:35:36;;;;;;;15.50;14.00;;;16.90;99.90;;;;;;5023966;28;20195;-75
2021/04/22 11:38:09;;;;;;;16.10;14.47;;;16.70;99.90;;;;;;5022422;28;20226;-76
2021/04/22 11:40:38;;;;;;;18.33;16.73;;;16.50;99.90;;;;;;5019176;28;20216;-75
2021/04/22 11:43:05;;;;;;;14.67;12.33;;;16.40;99.90;;;;;;5025616;28;20556;-76
2021/04/22 11:45:34;;;;;;;17.13;15.43;;;16.30;99.90;;;;;;5025041;28;20579;-76
2021/04/22 11:48:03;;;;;;;18.20;15.67;;;16.00;99.90;;;;;;5020337;28;20258;-76
2021/04/22 11:50:40;;;;;;;15.37;13.97;;;15.70;99.90;;;;;;5021411;28;20196;-76
2021/04/22 11:53:08;;;;;;;18.23;16.37;;;15.70;99.90;;;;;;5014900;28;20214;-77
2021/04/22 11:55:36;;;;;;;16.37;14.73;;;15.50;99.90;;;;;;5022027;28;20200;-76
2021/04/22 11:58:08;;;;;;;16.23;14.53;;;15.40;99.90;;;;;;5020845;28;20221;-76
2021/04/22 12:00:38;;;;;;;19.60;17.70;;;15.30;99.90;;;;;;5024077;28;20220;-76
2021/04/22 12:03:04;;;;;;;15.43;12.90;;;15.00;99.90;;;;;;5017851;28;20209;-76
2021/04/22 12:05:32;;;;;;;16.77;14.67;;;15.00;99.90;;;;;;5025407;28;20205;-76
2021/04/22 12:08:00;;;;;;;18.90;14.30;;;14.90;99.90;;;;;;5020060;28;20229;-75
2021/04/22 12:10:29;;;;;;;16.93;15.17;;;15.00;99.90;;;;;;5021523;28;20194;-76
2021/04/22 12:13:09;;;;;;;15.70;14.00;;;15.10;99.90;;;;;;5024003;28;20222;-76
2021/04/22 12:15:38;;;;;;;14.97;13.10;;;15.00;99.90;;;;;;5023593;28;20623;-76
2021/04/22 12:18:06;;;;;;;14.43;12.97;;;15.00;99.90;;;;;;5022589;28;20286;-76
2021/04/22 12:20:32;;;;;;;16.67;14.43;;;14.90;99.90;;;;;;5022438;28;20217;-76
2021/04/22 12:22:59;;;;;;;20.03;13.90;;;14.60;99.90;;;;;;5018811;28;20308;-76
2021/04/22 12:25:27;;;;;;;16.03;14.33;;;14.50;99.90;;;;;;5019956;28;20670;-76
2021/04/22 12:27:56;;;;;;;17.10;14.87;;;14.60;99.90;;;;;;5022728;28;20216;-76
2021/04/22 12:30:33;;;;;;;15.37;12.53;;;14.70;99.90;;;;;;5021498;28;20216;-76
2021/04/22 12:33:06;;;;;;;13.63;10.97;;;14.70;99.90;;;;;;5026078;28;20262;-76
2021/04/22 12:35:34;;;;;;;17.43;13.90;;;14.90;99.90;;;;;;5017035;28;20274;-77